createdAt,value
2019-01-30T00:00:15.438Z,85.47
2019-01-30T00:01:25.554Z,85.19
2019-01-30T00:02:35.661Z,85.28
2019-01-30T00:03:45.791Z,85.19
2019-01-30T00:04:55.894Z,85.19
2019-01-30T00:06:06.023Z,85.19
2019-01-30T00:07:16.126Z,85.19
2019-01-30T00:08:26.226Z,85.75
2019-01-30T00:09:36.326Z,85.28
2019-01-30T00:10:46.431Z,85.57
2019-01-30T00:11:56.303Z,85.19
2019-01-30T00:13:06.438Z,85.19
2019-01-30T00:14:16.556Z,85.28
2019-01-30T00:15:26.657Z,85.28
2019-01-30T00:16:36.866Z,85.66
2019-01-30T00:17:46.978Z,85.28
2019-01-30T00:18:57.096Z,85.47
2019-01-30T00:20:07.201Z,85.38
2019-01-30T00:21:17.307Z,85.38
2019-01-30T00:22:27.501Z,85.57
2019-01-30T00:23:37.624Z,85.38
2019-01-30T00:24:47.766Z,85.28
2019-01-30T00:25:57.872Z,85.66
2019-01-30T00:27:07.969Z,85.28
2019-01-30T00:28:18.328Z,85.57
2019-01-30T00:29:27.816Z,85.75
2019-01-30T00:30:37.674Z,85.57
2019-01-30T00:31:47.788Z,85.57
2019-01-30T00:32:57.906Z,85.57
2019-01-30T00:34:08.032Z,85.47
2019-01-30T00:35:18.185Z,85.75
2019-01-30T00:36:28.360Z,85.47
2019-01-30T00:37:38.455Z,85.66
2019-01-30T00:38:48.567Z,85.66
2019-01-30T00:39:59.648Z,85.57
2019-01-30T00:41:09.752Z,85.75
2019-01-30T00:42:19.513Z,85.38
2019-01-30T00:43:29.622Z,85.52
2019-01-30T00:44:39.720Z,86.09
2019-01-30T00:45:49.834Z,86.13
2019-01-30T00:46:59.937Z,86.09
2019-01-30T00:48:18.951Z,85.99
2019-01-30T00:49:29.077Z,85.9
2019-01-30T00:50:39.189Z,86.09
2019-01-30T00:51:49.289Z,86.09
2019-01-30T00:52:59.507Z,85.99
2019-01-30T00:54:09.385Z,85.9
2019-01-30T00:55:19.481Z,86.18
2019-01-30T00:56:29.587Z,86.18
2019-01-30T00:57:39.687Z,86.37
2019-01-30T00:58:49.793Z,86.94
2019-01-30T01:00:00.886Z,86.37
2019-01-30T01:01:19.962Z,86.47
2019-01-30T01:02:30.188Z,86.28
2019-01-30T01:03:40.319Z,86.85
2019-01-30T01:04:50.171Z,86.37
2019-01-30T01:06:00.295Z,86.75
2019-01-30T01:07:10.398Z,87.23
2019-01-30T01:08:20.604Z,87.04
2019-01-30T01:09:30.691Z,87.04
2019-01-30T01:10:40.796Z,87.13
2019-01-30T01:11:50.902Z,86.94
2019-01-30T01:13:01.011Z,86.85
2019-01-30T01:14:11.104Z,86.56
2019-01-30T01:15:21.256Z,86.75
2019-01-30T01:16:31.359Z,86.85
2019-01-30T01:17:41.458Z,87.41
2019-01-30T01:18:51.565Z,86.94
2019-01-30T01:20:01.692Z,86.94
2019-01-30T01:21:11.790Z,87.13
2019-01-30T01:22:21.624Z,87.23
2019-01-30T01:23:31.708Z,87.04
2019-01-30T01:24:41.840Z,87.04
2019-01-30T01:25:52.052Z,87.04
2019-01-30T01:27:02.177Z,86.85
2019-01-30T01:28:12.281Z,87.32
2019-01-30T01:29:22.414Z,87.51
2019-01-30T01:30:32.498Z,87.51
2019-01-30T01:31:42.409Z,87.6
2019-01-30T01:32:53.596Z,87.23
2019-01-30T01:34:03.694Z,87.41
2019-01-30T01:35:13.806Z,87.23
2019-01-30T01:36:23.906Z,87.32
2019-01-30T01:37:34.006Z,87.32
2019-01-30T01:38:44.129Z,87.6
2019-01-30T01:39:54.234Z,87.51
2019-01-30T01:41:04.335Z,87.51
2019-01-30T01:42:14.449Z,87.51
2019-01-30T01:43:24.617Z,87.6
2019-01-30T01:44:34.716Z,87.51
2019-01-30T01:45:44.820Z,87.6
2019-01-30T01:46:54.932Z,87.7
2019-01-30T01:48:05.248Z,87.7
2019-01-30T01:49:15.350Z,87.7
2019-01-30T01:50:25.465Z,87.6
2019-01-30T01:51:35.563Z,88.26
2019-01-30T01:52:45.676Z,87.88
2019-01-30T01:53:55.843Z,87.41
2019-01-30T01:55:05.944Z,87.41
2019-01-30T01:56:16.049Z,87.41
2019-01-30T01:57:25.783Z,87.79
2019-01-30T01:58:35.891Z,87.51
2019-01-30T01:59:45.994Z,87.6
2019-01-30T02:00:56.089Z,87.6
2019-01-30T02:02:06.190Z,88.26
2019-01-30T02:03:16.290Z,87.98
2019-01-30T02:04:26.401Z,88.07
2019-01-30T02:05:36.503Z,87.88
2019-01-30T02:06:46.602Z,87.88
2019-01-30T02:07:56.756Z,88.07
2019-01-30T02:09:06.871Z,88.07
2019-01-30T02:10:16.967Z,87.98
2019-01-30T02:11:27.052Z,87.79
2019-01-30T02:12:37.217Z,87.79
2019-01-30T02:13:47.403Z,87.88
2019-01-30T02:14:57.250Z,87.79
2019-01-30T02:16:07.361Z,87.88
2019-01-30T02:17:17.219Z,88.26
2019-01-30T02:18:27.342Z,88.26
2019-01-30T02:19:37.456Z,87.88
2019-01-30T02:20:48.523Z,88.17
2019-01-30T02:21:58.646Z,87.98
2019-01-30T02:23:08.763Z,88.07
2019-01-30T02:24:18.878Z,87.98
2019-01-30T02:25:28.974Z,87.98
2019-01-30T02:26:39.073Z,88.45
2019-01-30T02:27:49.171Z,88.07
2019-01-30T02:28:59.281Z,87.98
2019-01-30T02:30:09.405Z,87.98
2019-01-30T02:31:19.517Z,88.07
2019-01-30T02:32:29.618Z,87.98
2019-01-30T02:33:39.759Z,87.88
2019-01-30T02:34:49.898Z,87.88
2019-01-30T02:35:59.999Z,88.17
2019-01-30T02:37:10.097Z,87.88
2019-01-30T02:38:20.219Z,87.79
2019-01-30T02:39:30.325Z,88.17
2019-01-30T02:40:40.428Z,88.17
2019-01-30T02:41:50.537Z,88.17
2019-01-30T02:43:00.644Z,87.98
2019-01-30T02:44:10.512Z,87.88
2019-01-30T02:45:20.629Z,87.88
2019-01-30T02:46:30.764Z,88.26
2019-01-30T02:47:40.872Z,88.07
2019-01-30T02:48:50.988Z,87.88
2019-01-30T02:50:01.105Z,87.88
2019-01-30T02:51:11.215Z,87.98
2019-01-30T02:52:21.333Z,87.88
2019-01-30T02:53:31.442Z,87.98
2019-01-30T02:54:41.551Z,87.7
2019-01-30T02:55:51.673Z,87.88
2019-01-30T02:57:01.782Z,87.79
2019-01-30T02:58:11.929Z,87.88
2019-01-30T02:59:22.033Z,88.26
2019-01-30T03:00:32.145Z,88.17
2019-01-30T03:01:42.317Z,88.26
2019-01-30T03:02:52.408Z,88.17
2019-01-30T03:04:02.542Z,88.26
2019-01-30T03:05:12.397Z,88.17
2019-01-30T03:06:22.522Z,88.07
2019-01-30T03:07:32.614Z,88.45
2019-01-30T03:08:42.715Z,88.36
2019-01-30T03:09:52.864Z,87.98
2019-01-30T03:11:02.993Z,88.17
2019-01-30T03:12:13.103Z,88.07
2019-01-30T03:13:23.206Z,87.79
2019-01-30T03:14:33.096Z,88.22
2019-01-30T03:15:43.217Z,88.45
2019-01-30T03:16:53.064Z,88.45
2019-01-30T03:18:03.157Z,88.45
2019-01-30T03:19:13.262Z,88.55
2019-01-30T03:20:23.357Z,88.6
2019-01-30T03:21:33.675Z,88.55
2019-01-30T03:22:43.788Z,88.5
2019-01-30T03:23:53.913Z,88.55
2019-01-30T03:25:04.038Z,88.55
2019-01-30T03:26:14.130Z,88.12
2019-01-30T03:27:24.244Z,88.36
2019-01-30T03:28:34.340Z,88.17
2019-01-30T03:29:44.430Z,88.6
2019-01-30T03:30:54.538Z,88.55
2019-01-30T03:32:22.633Z,88.5
2019-01-30T03:33:32.788Z,88.41
2019-01-30T03:34:42.882Z,88.07
2019-01-30T03:35:52.967Z,88.5
2019-01-30T03:37:03.062Z,88.5
2019-01-30T03:38:13.149Z,88.69
2019-01-30T03:39:23.002Z,88.5
2019-01-30T03:40:33.095Z,88.69
2019-01-30T03:41:43.275Z,88.31
2019-01-30T03:42:53.384Z,88.31
2019-01-30T03:44:02.870Z,88.31
2019-01-30T03:45:13.196Z,89.07
2019-01-30T03:46:23.513Z,88.88
2019-01-30T03:47:33.634Z,88.88
2019-01-30T03:48:43.855Z,88.88
2019-01-30T03:49:53.960Z,88.88
2019-01-30T03:51:04.107Z,88.88
2019-01-30T03:52:14.208Z,88.69
2019-01-30T03:53:24.321Z,88.69
2019-01-30T03:54:34.411Z,88.98
2019-01-30T03:55:44.539Z,88.79
2019-01-30T03:56:54.639Z,88.88
2019-01-30T03:58:04.486Z,88.69
2019-01-30T03:59:14.602Z,88.88
2019-01-30T04:00:24.710Z,88.6
2019-01-30T04:01:34.828Z,88.69
2019-01-30T04:02:44.929Z,88.88
2019-01-30T04:03:55.050Z,88.88
2019-01-30T04:05:05.150Z,88.69
2019-01-30T04:06:15.012Z,88.69
2019-01-30T04:07:25.111Z,88.79
2019-01-30T04:08:35.209Z,88.69
2019-01-30T04:09:45.302Z,88.79
2019-01-30T04:10:55.407Z,88.6
2019-01-30T04:12:05.520Z,88.88
2019-01-30T04:13:15.647Z,88.88
2019-01-30T04:14:25.761Z,88.69
2019-01-30T04:15:35.604Z,88.88
2019-01-30T04:16:45.707Z,88.88
2019-01-30T04:17:55.828Z,88.88
2019-01-30T04:19:05.920Z,88.98
2019-01-30T04:20:16.016Z,88.88
2019-01-30T04:21:26.120Z,88.98
2019-01-30T04:22:36.219Z,88.79
2019-01-30T04:23:45.960Z,88.12
2019-01-30T04:24:56.064Z,88.41
2019-01-30T04:26:06.184Z,88.12
2019-01-30T04:27:16.280Z,88.12
2019-01-30T04:28:26.384Z,88.5
2019-01-30T04:29:36.224Z,88.22
2019-01-30T04:30:46.323Z,88.22
2019-01-30T04:31:56.451Z,88.31
2019-01-30T04:33:06.561Z,88.03
2019-01-30T04:34:16.698Z,88.31
2019-01-30T04:35:26.817Z,89.07
2019-01-30T04:36:36.932Z,88.41
2019-01-30T04:37:47.063Z,88.31
2019-01-30T04:38:57.174Z,88.22
2019-01-30T04:40:07.298Z,88.5
2019-01-30T04:41:17.416Z,88.5
2019-01-30T04:42:27.547Z,88.88
2019-01-30T04:43:37.654Z,88.88
2019-01-30T04:44:47.754Z,89.07
2019-01-30T04:45:57.985Z,88.22
2019-01-30T04:47:08.083Z,88.31
2019-01-30T04:48:18.451Z,88.6
2019-01-30T04:49:28.592Z,88.22
2019-01-30T04:50:38.798Z,88.41
2019-01-30T04:51:48.935Z,88.6
2019-01-30T04:52:59.031Z,88.5
2019-01-30T04:54:09.133Z,88.5
2019-01-30T04:55:19.248Z,88.12
2019-01-30T04:56:29.492Z,88.5
2019-01-30T04:57:39.606Z,88.5
2019-01-30T04:58:49.711Z,88.5
2019-01-30T04:59:59.821Z,88.5
2019-01-30T05:01:09.925Z,88.22
2019-01-30T05:02:20.016Z,88.31
2019-01-30T05:03:30.155Z,88.22
2019-01-30T05:04:40.309Z,88.31
2019-01-30T05:05:50.431Z,88.22
2019-01-30T05:07:00.512Z,88.31
2019-01-30T05:08:10.628Z,87.93
2019-01-30T05:09:20.742Z,88.12
2019-01-30T05:10:30.848Z,87.93
2019-01-30T05:11:40.963Z,88.03
2019-01-30T05:12:51.067Z,88.03
2019-01-30T05:14:03.896Z,88.12
2019-01-30T05:15:14.024Z,87.74
2019-01-30T05:16:24.133Z,88.12
2019-01-30T05:17:34.227Z,88.03
2019-01-30T05:18:44.362Z,88.22
2019-01-30T05:19:54.472Z,88.22
2019-01-30T05:21:04.566Z,87.84
2019-01-30T05:22:14.665Z,87.74
2019-01-30T05:23:24.762Z,88.03
2019-01-30T05:24:34.946Z,88.03
2019-01-30T05:25:45.154Z,87.84
2019-01-30T05:26:55.263Z,87.93
2019-01-30T05:28:05.367Z,87.93
2019-01-30T05:29:15.474Z,87.93
2019-01-30T05:30:25.784Z,88.03
2019-01-30T05:31:35.907Z,87.93
2019-01-30T05:32:46.058Z,87.74
2019-01-30T05:33:55.972Z,87.55
2019-01-30T05:35:05.722Z,87.55
2019-01-30T05:36:15.815Z,87.46
2019-01-30T05:37:25.946Z,87.46
2019-01-30T05:38:36.296Z,87.55
2019-01-30T05:39:46.422Z,87.65
2019-01-30T05:40:56.596Z,87.65
2019-01-30T05:42:06.706Z,87.55
2019-01-30T05:43:16.554Z,87.27
2019-01-30T05:44:26.657Z,87.18
2019-01-30T05:45:36.764Z,87.18
2019-01-30T05:46:46.897Z,87.27
2019-01-30T05:47:56.952Z,87.27
2019-01-30T05:49:07.053Z,86.99
2019-01-30T05:50:17.157Z,87.37
2019-01-30T05:51:27.377Z,87.37
2019-01-30T05:52:37.499Z,87.08
2019-01-30T05:53:47.605Z,86.99
2019-01-30T05:54:57.748Z,87.27
2019-01-30T05:56:07.903Z,87.18
2019-01-30T05:57:18.007Z,87.46
2019-01-30T05:58:28.115Z,87.18
2019-01-30T05:59:38.214Z,87.08
2019-01-30T06:00:48.309Z,86.99
2019-01-30T06:01:58.413Z,87.46
2019-01-30T06:03:21.230Z,87.08
2019-01-30T06:04:31.343Z,87.08
2019-01-30T06:05:41.457Z,87.18
2019-01-30T06:06:51.550Z,87.18
2019-01-30T06:08:01.667Z,87.46
2019-01-30T06:09:11.772Z,87.46
2019-01-30T06:10:21.876Z,87.65
2019-01-30T06:11:31.990Z,87.46
2019-01-30T06:12:42.088Z,86.9
2019-01-30T06:13:52.222Z,86.9
2019-01-30T06:15:01.964Z,86.8
2019-01-30T06:16:12.057Z,86.8
2019-01-30T06:17:22.158Z,86.8
2019-01-30T06:18:32.004Z,87.18
2019-01-30T06:19:42.112Z,87.08
2019-01-30T06:20:52.193Z,86.9
2019-01-30T06:22:02.294Z,86.99
2019-01-30T06:23:12.404Z,86.9
2019-01-30T06:24:22.538Z,86.99
2019-01-30T06:25:32.778Z,86.99
2019-01-30T06:26:42.879Z,86.99
2019-01-30T06:27:53.058Z,87.18
2019-01-30T06:29:03.188Z,86.8
2019-01-30T06:30:13.314Z,86.8
2019-01-30T06:31:23.408Z,86.71
2019-01-30T06:32:34.901Z,86.71
2019-01-30T06:33:45.000Z,86.9
2019-01-30T06:34:56.690Z,86.8
2019-01-30T06:36:06.942Z,86.61
2019-01-30T06:37:18.288Z,86.71
2019-01-30T06:38:28.540Z,86.52
2019-01-30T06:39:38.634Z,86.71
2019-01-30T06:40:48.748Z,86.8
2019-01-30T06:41:58.845Z,86.8
2019-01-30T06:43:08.940Z,87.18
2019-01-30T06:44:19.043Z,86.8
2019-01-30T06:45:29.155Z,86.9
2019-01-30T06:46:39.258Z,86.9
2019-01-30T06:47:49.372Z,86.8
2019-01-30T06:48:59.464Z,86.8
2019-01-30T06:50:09.586Z,86.8
2019-01-30T06:51:19.696Z,86.99
2019-01-30T06:52:29.824Z,86.99
2019-01-30T06:53:39.932Z,86.99
2019-01-30T06:54:50.066Z,86.99
2019-01-30T06:56:00.187Z,87.08
2019-01-30T06:57:10.326Z,86.99
2019-01-30T06:58:20.258Z,86.99
2019-01-30T06:59:30.370Z,86.9
2019-01-30T07:00:40.476Z,87.18
2019-01-30T07:01:50.327Z,86.99
2019-01-30T07:03:00.437Z,86.85
2019-01-30T07:04:10.531Z,86.8
2019-01-30T07:05:20.380Z,86.8
2019-01-30T07:06:30.480Z,87.18
2019-01-30T07:07:40.609Z,86.8
2019-01-30T07:08:50.708Z,87.27
2019-01-30T07:10:00.805Z,86.99
2019-01-30T07:11:13.322Z,86.71
2019-01-30T07:12:23.438Z,86.8
2019-01-30T07:13:33.287Z,86.99
2019-01-30T07:14:43.419Z,86.99
2019-01-30T07:15:53.606Z,86.85
2019-01-30T07:17:03.717Z,86.71
2019-01-30T07:18:13.813Z,86.8
2019-01-30T07:19:23.911Z,86.8
2019-01-30T07:20:33.673Z,86.99
2019-01-30T07:21:43.417Z,86.99
2019-01-30T07:22:53.275Z,86.71
2019-01-30T07:24:03.420Z,86.9
2019-01-30T07:25:13.549Z,87.04
2019-01-30T07:26:23.690Z,86.94
2019-01-30T07:27:33.844Z,86.75
2019-01-30T07:28:43.969Z,86.94
2019-01-30T07:29:54.076Z,87.04
2019-01-30T07:31:04.213Z,86.94
2019-01-30T07:32:14.312Z,86.94
2019-01-30T07:33:24.441Z,86.94
2019-01-30T07:34:34.545Z,86.94
2019-01-30T07:35:44.680Z,87.04
2019-01-30T07:36:54.820Z,86.94
2019-01-30T07:38:04.933Z,86.85
2019-01-30T07:39:15.046Z,87.23
2019-01-30T07:40:25.171Z,86.85
2019-01-30T07:41:35.285Z,86.85
2019-01-30T07:42:45.403Z,87.13
2019-01-30T07:43:55.519Z,86.28
2019-01-30T07:45:05.632Z,86.94
2019-01-30T07:46:15.755Z,87.13
2019-01-30T07:47:25.852Z,86.75
2019-01-30T07:48:35.964Z,86.85
2019-01-30T07:49:46.078Z,86.37
2019-01-30T07:50:56.187Z,86.56
2019-01-30T07:52:06.322Z,86.85
2019-01-30T07:53:16.424Z,86.37
2019-01-30T07:54:26.526Z,86.18
2019-01-30T07:55:36.628Z,86.18
2019-01-30T07:56:46.829Z,86.56
2019-01-30T07:57:56.939Z,86.09
2019-01-30T07:59:08.921Z,85.8
2019-01-30T08:00:20.460Z,85.52
2019-01-30T08:01:30.581Z,85.71
2019-01-30T08:02:40.694Z,85.9
2019-01-30T08:04:00.724Z,85.9
2019-01-30T08:05:10.850Z,85.52
2019-01-30T08:06:22.206Z,85.9
2019-01-30T08:07:32.343Z,85.52
2019-01-30T08:08:42.472Z,85.52
2019-01-30T08:09:55.003Z,84.95
2019-01-30T08:11:07.240Z,85.33
2019-01-30T08:12:17.545Z,85.09
2019-01-30T08:13:27.641Z,85.09
2019-01-30T08:14:37.753Z,84.81
2019-01-30T08:15:47.860Z,84.9
2019-01-30T08:16:57.741Z,83.95
2019-01-30T08:18:07.918Z,83.71
2019-01-30T08:19:18.020Z,83.52
2019-01-30T08:20:28.194Z,82.95
2019-01-30T08:21:38.298Z,82.24
2019-01-30T08:22:48.664Z,81.38
2019-01-30T08:23:58.916Z,81.2
2019-01-30T08:25:10.092Z,80.86
2019-01-30T08:26:21.126Z,80.76
2019-01-30T08:27:34.685Z,80.29
2019-01-30T08:28:46.423Z,79.72
2019-01-30T08:29:57.446Z,79.38
2019-01-30T08:31:08.481Z,79.38
2019-01-30T08:32:22.214Z,78.05
2019-01-30T08:33:32.928Z,77.52
2019-01-30T08:34:43.039Z,77.05
2019-01-30T08:35:52.895Z,76.95
2019-01-30T08:37:03.000Z,76.86
2019-01-30T08:38:13.143Z,75.81
2019-01-30T08:39:23.266Z,75.62
2019-01-30T08:40:33.394Z,75.62
2019-01-30T08:41:43.545Z,75.53
2019-01-30T08:42:54.830Z,75.15
2019-01-30T08:44:04.954Z,75.05
2019-01-30T08:45:15.076Z,74.2
2019-01-30T08:46:25.183Z,73.92
2019-01-30T08:47:35.309Z,72.97
2019-01-30T08:48:45.423Z,72.97
2019-01-30T08:49:55.542Z,72.15
2019-01-30T08:51:05.675Z,72.25
2019-01-30T08:52:15.810Z,72.15
2019-01-30T08:53:25.933Z,71.58
2019-01-30T08:54:36.052Z,71.14
2019-01-30T08:55:46.138Z,70.38
2019-01-30T08:56:56.245Z,70.67
2019-01-30T08:58:06.359Z,70.23
2019-01-30T08:59:16.483Z,69.27
2019-01-30T09:00:26.695Z,69.37
2019-01-30T09:01:36.805Z,68.71
2019-01-30T09:02:46.659Z,69.37
2019-01-30T09:03:56.983Z,68.84
2019-01-30T09:05:07.113Z,67.38
2019-01-30T09:06:17.213Z,66.36
2019-01-30T09:07:27.324Z,66.33
2019-01-30T09:08:47.265Z,64.37
2019-01-30T09:09:56.860Z,65.19
2019-01-30T09:11:06.976Z,65.09
2019-01-30T09:12:20.539Z,65.22
2019-01-30T09:13:30.666Z,64.84
2019-01-30T09:14:40.781Z,64.56
2019-01-30T09:15:50.924Z,64.65
2019-01-30T09:17:00.796Z,63.42
2019-01-30T09:18:15.990Z,63.13
2019-01-30T09:19:26.307Z,63.13
2019-01-30T09:20:36.436Z,63.23
2019-01-30T09:21:46.567Z,62.08
2019-01-30T09:22:57.667Z,61.71
2019-01-30T09:24:07.787Z,61.61
2019-01-30T09:25:19.224Z,62.75
2019-01-30T09:26:29.347Z,62.75
2019-01-30T09:27:39.482Z,61.99
2019-01-30T09:28:49.594Z,61.71
2019-01-30T09:29:59.724Z,61.58
2019-01-30T09:31:09.831Z,61.68
2019-01-30T09:32:19.970Z,61.68
2019-01-30T09:33:30.214Z,61.01
2019-01-30T09:34:40.442Z,60.91
2019-01-30T09:35:50.584Z,61.2
2019-01-30T09:37:00.753Z,61.68
2019-01-30T09:38:10.879Z,61.77
2019-01-30T09:39:20.743Z,61.58
2019-01-30T09:40:30.902Z,60.82
2019-01-30T09:41:41.020Z,60.72
2019-01-30T09:42:51.143Z,60.44
2019-01-30T09:44:01.332Z,61.2
2019-01-30T09:45:12.520Z,60.63
2019-01-30T09:46:22.640Z,60.72
2019-01-30T09:47:32.866Z,60.53
2019-01-30T09:48:42.740Z,60.91
2019-01-30T09:49:52.854Z,60.82
2019-01-30T09:51:02.993Z,61.01
2019-01-30T09:52:13.154Z,60.91
2019-01-30T09:53:32.407Z,60.72
2019-01-30T09:54:42.645Z,60.72
2019-01-30T09:55:52.786Z,60.44
2019-01-30T09:57:02.996Z,59.87
2019-01-30T09:58:13.129Z,59.77
2019-01-30T09:59:23.262Z,59.87
2019-01-30T10:00:33.484Z,60.31
2019-01-30T10:01:43.613Z,60.31
2019-01-30T10:02:53.738Z,60.16
2019-01-30T10:04:03.863Z,60.44
2019-01-30T10:05:13.989Z,60.44
2019-01-30T10:06:24.108Z,59.68
2019-01-30T10:07:34.228Z,59.27
2019-01-30T10:08:44.101Z,59.74
2019-01-30T10:09:54.252Z,59.65
2019-01-30T10:11:04.498Z,59.55
2019-01-30T10:12:14.645Z,59.55
2019-01-30T10:13:25.838Z,59.46
2019-01-30T10:14:35.950Z,59.74
2019-01-30T10:15:45.819Z,59.55
2019-01-30T10:16:55.935Z,59.46
2019-01-30T10:18:06.051Z,59.65
2019-01-30T10:19:15.939Z,59.46
2019-01-30T10:20:26.059Z,59.74
2019-01-30T10:21:36.180Z,59.62
2019-01-30T10:22:46.301Z,59.81
2019-01-30T10:23:56.424Z,59.81
2019-01-30T10:25:06.659Z,60
2019-01-30T10:26:16.800Z,59.62
2019-01-30T10:27:26.615Z,59.43
2019-01-30T10:28:36.726Z,60.19
2019-01-30T10:29:46.848Z,60.38
2019-01-30T10:30:56.717Z,60.38
2019-01-30T10:32:06.866Z,60.25
2019-01-30T10:33:16.979Z,60.53
2019-01-30T10:34:27.108Z,61.2
2019-01-30T10:35:37.270Z,61.3
2019-01-30T10:36:47.410Z,61.49
2019-01-30T10:37:57.542Z,61.49
2019-01-30T10:39:07.649Z,61.3
2019-01-30T10:40:17.768Z,61.87
2019-01-30T10:41:27.898Z,61.58
2019-01-30T10:42:38.019Z,61.58
2019-01-30T10:43:48.150Z,61.39
2019-01-30T10:44:58.266Z,61.49
2019-01-30T10:46:08.393Z,61.3
2019-01-30T10:47:18.531Z,61.68
2019-01-30T10:48:28.665Z,61.68
2019-01-30T10:49:39.575Z,61.96
2019-01-30T10:50:49.680Z,61.77
2019-01-30T10:51:59.772Z,61.77
2019-01-30T10:53:09.956Z,61.9
2019-01-30T10:54:20.075Z,61.52
2019-01-30T10:55:30.223Z,61.04
2019-01-30T10:56:40.355Z,60.76
2019-01-30T10:57:50.489Z,60.19
2019-01-30T10:59:00.613Z,60.28
2019-01-30T11:00:10.734Z,60.44
2019-01-30T11:01:20.853Z,60.35
2019-01-30T11:02:30.971Z,61.3
2019-01-30T11:03:41.106Z,61.2
2019-01-30T11:05:00.410Z,61.3
2019-01-30T11:06:10.576Z,61.3
2019-01-30T11:07:20.729Z,61.68
2019-01-30T11:08:30.857Z,61.87
2019-01-30T11:09:42.357Z,61.68
2019-01-30T11:10:53.528Z,61.39
2019-01-30T11:12:13.370Z,61.23
2019-01-30T11:13:23.471Z,61.14
2019-01-30T11:14:33.609Z,61.14
2019-01-30T11:15:46.452Z,60.31
2019-01-30T11:16:56.831Z,59.65
2019-01-30T11:18:06.942Z,59.36
2019-01-30T11:19:17.046Z,59.46
2019-01-30T11:20:27.155Z,59.49
2019-01-30T11:21:37.268Z,59.11
2019-01-30T11:22:47.390Z,58.28
2019-01-30T11:23:59.097Z,57.71
2019-01-30T11:25:09.361Z,57.43
2019-01-30T11:26:19.509Z,56.31
2019-01-30T11:27:29.630Z,55.9
2019-01-30T11:28:39.774Z,55.52
2019-01-30T11:29:49.875Z,56.03
2019-01-30T11:30:59.994Z,55.65
2019-01-30T11:32:10.114Z,55.74
2019-01-30T11:33:20.259Z,56.19
2019-01-30T11:34:30.407Z,55.15
2019-01-30T11:35:40.605Z,54.77
2019-01-30T11:36:50.740Z,54.48
2019-01-30T11:38:03.205Z,54.38
2019-01-30T11:39:14.375Z,54.67
2019-01-30T11:40:24.238Z,54.96
2019-01-30T11:41:34.011Z,54.77
2019-01-30T11:42:43.896Z,54.77
2019-01-30T11:43:54.009Z,55.17
2019-01-30T11:45:04.140Z,55.65
2019-01-30T11:46:14.261Z,55.93
2019-01-30T11:47:24.142Z,55.36
2019-01-30T11:48:36.613Z,55.55
2019-01-30T11:49:48.352Z,54.72
2019-01-30T11:50:58.834Z,54.44
2019-01-30T11:52:08.955Z,54.25
2019-01-30T11:53:19.073Z,54.53
2019-01-30T11:54:38.463Z,54.44
2019-01-30T11:55:48.738Z,54.44
2019-01-30T11:56:58.601Z,53.89
2019-01-30T11:58:08.841Z,54.18
2019-01-30T11:59:18.960Z,53.99
2019-01-30T12:00:29.081Z,53.42
2019-01-30T12:01:39.202Z,53.04
2019-01-30T12:02:50.527Z,53.52
2019-01-30T12:04:00.665Z,52.56
2019-01-30T12:05:20.689Z,52.47
2019-01-30T12:06:30.816Z,51.89
2019-01-30T12:07:40.934Z,52.15
2019-01-30T12:08:51.070Z,52.53
2019-01-30T12:10:01.228Z,52.92
2019-01-30T12:11:11.360Z,53.58
2019-01-30T12:12:21.475Z,53.36
2019-01-30T12:13:31.626Z,53.46
2019-01-30T12:14:41.747Z,53.46
2019-01-30T12:15:51.870Z,53.55
2019-01-30T12:17:02.006Z,53.55
2019-01-30T12:18:12.127Z,53.63
2019-01-30T12:19:22.241Z,53.81
2019-01-30T12:20:32.364Z,53.72
2019-01-30T12:21:42.485Z,53.72
2019-01-30T12:22:52.609Z,53.24
2019-01-30T12:24:02.491Z,53.72
2019-01-30T12:25:12.635Z,54.07
2019-01-30T12:26:22.772Z,54.55
2019-01-30T12:27:33.013Z,54.64
2019-01-30T12:28:43.165Z,54.93
2019-01-30T12:29:53.281Z,55.11
2019-01-30T12:31:03.425Z,54.83
2019-01-30T12:32:13.637Z,55.02
2019-01-30T12:33:23.394Z,56.04
2019-01-30T12:34:33.537Z,56.04
2019-01-30T12:35:43.660Z,56.13
2019-01-30T12:36:53.784Z,55.57
2019-01-30T12:38:03.922Z,55.66
2019-01-30T12:39:14.039Z,56.13
2019-01-30T12:40:24.175Z,56.13
2019-01-30T12:41:35.777Z,56.61
2019-01-30T12:42:46.025Z,56.7
2019-01-30T12:43:56.168Z,56.8
2019-01-30T12:45:06.284Z,56.7
2019-01-30T12:46:16.423Z,56.68
2019-01-30T12:47:26.554Z,56.87
2019-01-30T12:48:36.672Z,57.72
2019-01-30T12:49:46.807Z,57.34
2019-01-30T12:50:56.940Z,57.81
2019-01-30T12:52:07.070Z,57.91
2019-01-30T12:53:17.199Z,58.39
2019-01-30T12:54:27.366Z,58.64
2019-01-30T12:55:37.484Z,58.92
2019-01-30T12:56:47.618Z,58.92
2019-01-30T12:57:57.831Z,59.21
2019-01-30T12:59:07.993Z,59.3
2019-01-30T13:00:18.272Z,59.49
2019-01-30T13:01:30.749Z,59.68
2019-01-30T13:02:41.106Z,59.43
2019-01-30T13:03:51.267Z,59.68
2019-01-30T13:05:01.376Z,59.59
2019-01-30T13:06:11.490Z,59.78
2019-01-30T13:07:21.630Z,59.68
2019-01-30T13:08:31.789Z,59.68
2019-01-30T13:09:41.926Z,59.78
2019-01-30T13:10:52.057Z,59.88
2019-01-30T13:12:02.256Z,60.53
2019-01-30T13:13:12.394Z,60.06
2019-01-30T13:14:22.551Z,60.73
2019-01-30T13:15:32.685Z,60.53
2019-01-30T13:16:42.904Z,60.63
2019-01-30T13:17:53.167Z,60.35
2019-01-30T13:19:03.310Z,60.82
2019-01-30T13:20:13.436Z,61.08
2019-01-30T13:21:23.567Z,61.27
2019-01-30T13:22:33.699Z,61.65
2019-01-30T13:23:43.811Z,61.55
2019-01-30T13:24:53.928Z,61.74
2019-01-30T13:26:04.064Z,61.55
2019-01-30T13:27:14.191Z,62.02
2019-01-30T13:28:24.324Z,62.4
2019-01-30T13:29:34.450Z,62.4
2019-01-30T13:30:46.330Z,62.21
2019-01-30T13:31:56.461Z,62.59
2019-01-30T13:33:06.583Z,62.97
2019-01-30T13:34:16.764Z,63.17
2019-01-30T13:35:26.898Z,63.17
2019-01-30T13:36:37.023Z,63.26
2019-01-30T13:37:47.743Z,63.45
2019-01-30T13:38:57.629Z,63.42
2019-01-30T13:40:07.757Z,63.35
2019-01-30T13:41:17.892Z,63.04
2019-01-30T13:42:28.045Z,63.13
2019-01-30T13:43:38.169Z,63.79
2019-01-30T13:44:48.332Z,63.89
2019-01-30T13:46:07.830Z,63.89
2019-01-30T13:47:17.945Z,63.98
2019-01-30T13:48:28.095Z,64.46
2019-01-30T13:49:39.428Z,64.27
2019-01-30T13:50:49.585Z,64.27
2019-01-30T13:51:59.909Z,64.93
2019-01-30T13:53:10.095Z,64.74
2019-01-30T13:54:22.363Z,64.65
2019-01-30T13:55:32.568Z,65.03
2019-01-30T13:56:42.759Z,65.12
2019-01-30T13:57:52.987Z,64.93
2019-01-30T13:59:03.133Z,64.93
2019-01-30T14:00:13.309Z,64.65
2019-01-30T14:01:23.480Z,65.31
2019-01-30T14:02:33.895Z,65.22
2019-01-30T14:03:44.073Z,65.12
2019-01-30T14:05:01.912Z,65.22
2019-01-30T14:06:12.399Z,65.03
2019-01-30T14:07:22.557Z,64.84
2019-01-30T14:08:32.759Z,65.12
2019-01-30T14:09:42.989Z,65.31
2019-01-30T14:10:53.139Z,65.03
2019-01-30T14:12:03.393Z,65.59
2019-01-30T14:13:13.614Z,65.78
2019-01-30T14:14:23.577Z,65.97
2019-01-30T14:15:33.717Z,65.69
2019-01-30T14:16:43.905Z,65.97
2019-01-30T14:17:54.057Z,66.26
2019-01-30T14:19:03.908Z,66.07
2019-01-30T14:20:14.241Z,65.97
2019-01-30T14:21:24.444Z,66.35
2019-01-30T14:22:34.538Z,66.54
2019-01-30T14:23:44.917Z,66.45
2019-01-30T14:24:54.718Z,66.45
2019-01-30T14:26:04.705Z,66.54
2019-01-30T14:27:14.879Z,67.21
2019-01-30T14:28:25.067Z,66.93
2019-01-30T14:29:35.411Z,67.21
2019-01-30T14:30:45.599Z,67.21
2019-01-30T14:31:55.817Z,66.8
2019-01-30T14:33:06.019Z,66.99
2019-01-30T14:34:16.185Z,67.36
2019-01-30T14:35:26.390Z,67.36
2019-01-30T14:36:36.559Z,67.58
2019-01-30T14:37:46.375Z,67.74
2019-01-30T14:38:56.597Z,67.36
2019-01-30T14:40:06.845Z,67.65
2019-01-30T14:41:17.018Z,67.74
2019-01-30T14:42:27.183Z,67.65
2019-01-30T14:43:37.473Z,67.49
2019-01-30T14:44:47.646Z,67.93
2019-01-30T14:45:57.810Z,67.93
2019-01-30T14:47:10.383Z,67.65
2019-01-30T14:48:20.752Z,67.83
2019-01-30T14:49:30.942Z,67.93
2019-01-30T14:50:41.184Z,67.74
2019-01-30T14:51:51.533Z,67.58
2019-01-30T14:53:01.711Z,67.93
2019-01-30T14:54:11.894Z,67.93
2019-01-30T14:55:21.791Z,68.02
2019-01-30T14:56:32.037Z,68.4
2019-01-30T14:57:42.210Z,68.21
2019-01-30T14:58:52.462Z,68.31
2019-01-30T15:00:02.777Z,68.4
2019-01-30T15:01:13.053Z,68.4
2019-01-30T15:02:23.353Z,68.69
2019-01-30T15:03:33.549Z,68.5
2019-01-30T15:04:43.735Z,68.88
2019-01-30T15:05:53.937Z,68.69
2019-01-30T15:07:04.206Z,68.59
2019-01-30T15:08:14.570Z,68.69
2019-01-30T15:09:24.794Z,68.98